Time;durP1;ratioP1;P1;durP2;ratioP2;P2;SDS_P1;SDS_P2;PMS_P1;PMS_P2;Temp;Humidity;BMP_temperature;BMP_pressure;BME280_temperature;BME280_humidity;BME280_pressure;Samples;Min_cycle;Max_cycle;Signal;HPM_P1;HPM_P2
2021/12/29 00:02:14;;;;;;;10.52;7.03;;;;;;;10.50;70.37;101143.63;4895907;29;20116;-89
2021/12/29 00:04:41;;;;;;;10.68;6.97;;;;;;;10.46;70.08;101119.88;4878722;29;20155;-89
2021/12/29 00:07:07;;;;;;;10.25;6.65;;;;;;;10.34;70.31;101096.53;4864087;29;20045;-89
2021/12/29 00:09:36;;;;;;;9.88;6.50;;;;;;;10.56;70.39;101128.34;4879622;29;20510;-89
2021/12/29 00:12:04;;;;;;;10.27;6.63;;;;;;;10.32;70.50;101090.31;4881306;29;20128;-88
2021/12/29 00:14:30;;;;;;;9.85;6.60;;;;;;;10.41;70.04;101103.91;4883639;29;20388;-90
2021/12/29 00:17:02;;;;;;;8.85;6.13;;;;;;;10.31;70.06;101083.28;4884048;29;20031;-90
2021/12/29 00:19:30;;;;;;;10.18;6.72;;;;;;;10.42;70.36;101103.09;4868251;29;20423;-90
2021/12/29 00:21:57;;;;;;;10.15;6.32;;;;;;;10.36;70.16;101116.69;4883380;29;20039;-90
2021/12/29 00:24:37;;;;;;;10.27;6.78;;;;;;;10.33;70.25;101102.56;4881624;29;20035;-90
2021/12/29 00:27:10;;;;;;;9.88;6.35;;;;;;;10.52;70.23;101144.63;4879880;29;20109;-90
2021/12/29 00:29:40;;;;;;;9.88;6.25;;;;;;;10.55;70.33;101141.28;4887081;29;20354;-88
2021/12/29 00:32:14;;;;;;;9.90;6.28;;;;;;;10.30;70.14;101095.41;4890328;29;20046;-91
2021/12/29 00:35:14;;;;;;;8.55;5.80;;;;;;;10.55;70.25;101138.69;4882388;29;20067;-92
2021/12/29 00:37:49;;;;;;;9.23;6.13;;;;;;;10.49;70.47;101128.75;4886486;29;20060;-92
2021/12/29 00:40:17;;;;;;;11.50;6.55;;;;;;;10.51;70.50;101140.19;4885387;29;20024;-91
2021/12/29 00:42:56;;;;;;;9.88;5.57;;;;;;;10.51;70.35;101137.59;4885180;29;20024;-91
2021/12/29 00:45:50;;;;;;;9.50;5.97;;;;;;;10.52;70.27;101138.47;4885112;29;20036;-91
2021/12/29 00:48:21;;;;;;;8.38;5.93;;;;;;;10.50;70.34;101142.75;4900953;29;20064;-90
2021/12/29 00:51:05;;;;;;;8.70;5.82;;;;;;;10.23;70.25;101085.41;4868428;29;20063;-91
2021/12/29 00:54:12;;;;;;;7.40;5.25;;;;;;;10.48;70.47;101124.34;4867789;29;20032;-91
2021/12/29 00:56:39;;;;;;;7.97;5.57;;;;;;;10.31;70.67;101091.13;4891380;29;20487;-90
2021/12/29 00:59:20;;;;;;;7.43;4.88;;;;;;;10.31;70.17;101088.50;4872986;29;20484;-90
2021/12/29 01:02:03;;;;;;;8.25;5.40;;;;;;;10.48;70.29;101126.09;4865039;29;20411;-92
2021/12/29 01:07:51;;;;;;;7.75;5.25;;;;;;;10.48;70.18;101124.34;4900941;29;20075;-92
2021/12/29 01:13:48;;;;;;;7.40;4.72;;;;;;;10.44;69.93;101116.25;4900737;29;20107;-92
2021/12/29 01:16:52;;;;;;;7.05;4.60;;;;;;;10.49;70.21;101133.09;4898265;29;20024;-92
2021/12/29 01:19:30;;;;;;;7.32;4.75;;;;;;;10.49;69.99;101123.53;4898602;29;20414;-91
2021/12/29 01:25:26;;;;;;;8.27;4.85;;;;;;;10.46;70.43;101120.75;4899816;29;20112;-92
2021/12/29 01:28:01;;;;;;;7.38;4.68;;;;;;;10.46;70.29;101112.03;4868148;29;20126;-93
2021/12/29 01:30:55;;;;;;;7.47;4.80;;;;;;;10.44;70.53;101117.16;4882907;29;20583;-92
2021/12/29 01:33:35;;;;;;;6.55;4.45;;;;;;;10.04;70.18;101045.97;4881645;29;20040;-92
2021/12/29 01:36:01;;;;;;;6.97;4.97;;;;;;;10.16;70.18;101055.44;4874752;29;20064;-92
2021/12/29 01:38:53;;;;;;;8.85;5.03;;;;;;;10.45;70.20;101112.81;4866357;29;20393;-92
2021/12/29 01:42:07;;;;;;;6.20;4.25;;;;;;;10.48;70.07;101106.09;4862692;29;20041;-93
2021/12/29 01:45:18;;;;;;;7.28;4.82;;;;;;;10.47;70.43;101108.59;4862500;29;20117;-92
2021/12/29 01:48:12;;;;;;;7.30;4.45;;;;;;;10.43;70.32;101104.88;4877300;29;20057;-92
2021/12/29 01:51:30;;;;;;;5.47;3.90;;;;;;;10.43;70.50;101096.16;4877074;29;20034;-91
2021/12/29 01:54:24;;;;;;;6.53;4.40;;;;;;;10.46;70.11;101094.66;4876744;29;20037;-92
2021/12/29 01:57:13;;;;;;;6.10;4.07;;;;;;;10.46;70.13;101091.16;4861582;29;20489;-91
2021/12/29 02:00:07;;;;;;;6.47;4.22;;;;;;;10.43;70.52;101094.44;4876358;29;20039;-92
2021/12/29 02:05:55;;;;;;;4.85;3.92;;;;;;;10.31;70.79;101083.28;4870621;29;20080;-92
2021/12/29 02:08:24;;;;;;;6.20;4.07;;;;;;;10.37;70.50;101092.38;4869308;29;20504;-90
2021/12/29 02:11:32;;;;;;;6.28;4.15;;;;;;;10.38;70.60;101091.56;4876602;29;20138;-91
2021/12/29 02:14:04;;;;;;;5.63;4.27;;;;;;;10.38;70.41;101083.72;4860720;29;20518;-92
2021/12/29 02:17:05;;;;;;;6.28;4.20;;;;;;;10.41;70.28;101087.34;4863412;29;20040;-91
2021/12/29 02:19:32;;;;;;;6.65;4.00;;;;;;;10.26;70.45;101062.06;4885463;29;20028;-92
2021/12/29 02:23:11;;;;;;;6.00;4.05;;;;;;;10.41;70.12;101074.28;4879237;29;20033;-91
2021/12/29 02:30:52;;;;;;;5.78;3.92;;;;;;;9.97;70.23;101008.16;4879422;29;20033;-90
2021/12/29 02:33:34;;;;;;;6.10;4.30;;;;;;;10.11;70.32;101032.47;4878856;29;20500;-92
2021/12/29 02:36:19;;;;;;;5.80;4.03;;;;;;;10.38;70.30;101064.56;4863583;29;20499;-91
2021/12/29 02:39:00;;;;;;;5.88;4.00;;;;;;;10.16;70.45;101031.06;4862691;29;20036;-92
2021/12/29 02:41:27;;;;;;;5.55;3.63;;;;;;;10.10;70.48;101030.69;4863734;29;20037;-90
2021/12/29 02:44:10;;;;;;;5.53;3.85;;;;;;;10.33;70.53;101059.06;4861082;29;20089;-91
2021/12/29 02:46:38;;;;;;;5.22;3.72;;;;;;;10.08;70.38;101014.91;4878408;29;20044;-90
2021/12/29 02:49:07;;;;;;;6.30;3.90;;;;;;;10.27;70.24;101052.56;4878754;29;20115;-90
2021/12/29 02:51:34;;;;;;;5.55;3.40;;;;;;;10.30;70.40;101044.94;4878747;29;20112;-89
2021/12/29 02:54:01;;;;;;;5.05;3.70;;;;;;;10.37;70.21;101054.91;4872932;29;20076;-90
2021/12/29 02:56:28;;;;;;;5.70;3.92;;;;;;;10.33;70.12;101055.56;4874763;29;20037;-90
2021/12/29 02:58:56;;;;;;;4.85;3.75;;;;;;;10.05;70.23;101006.00;4878402;29;20040;-90
2021/12/29 03:01:23;;;;;;;5.75;3.55;;;;;;;10.36;70.23;101053.13;4862251;29;20029;-90
2021/12/29 03:03:49;;;;;;;5.18;3.47;;;;;;;10.07;70.01;101007.00;4862029;29;20036;-90
2021/12/29 03:06:15;;;;;;;5.65;3.60;;;;;;;10.05;70.48;100993.84;4869384;29;20476;-89
2021/12/29 03:08:41;;;;;;;5.40;3.70;;;;;;;10.35;70.36;101033.97;4878663;29;20547;-88
2021/12/29 03:11:07;;;;;;;5.00;3.38;;;;;;;10.05;70.21;100986.03;4876842;29;20427;-89
2021/12/29 03:13:38;;;;;;;5.00;3.72;;;;;;;9.97;70.54;100977.75;4878467;29;20097;-91
2021/12/29 03:16:12;;;;;;;5.10;3.65;;;;;;;10.28;70.33;101023.91;4859344;29;20058;-91
2021/12/29 03:18:40;;;;;;;5.32;3.15;;;;;;;10.20;70.35;101017.34;4874124;29;20124;-89
2021/12/29 03:21:18;;;;;;;5.05;3.60;;;;;;;10.24;70.36;101016.72;4861072;29;20035;-90
2021/12/29 03:23:45;;;;;;;5.15;3.35;;;;;;;10.29;70.32;101033.59;4877984;29;20113;-90
2021/12/29 03:26:22;;;;;;;4.00;3.05;;;;;;;10.08;70.19;100982.72;4878833;29;20029;-90
2021/12/29 03:28:53;;;;;;;5.10;3.35;;;;;;;10.16;70.46;101004.94;4861922;29;20035;-90
2021/12/29 03:31:21;;;;;;;5.10;3.40;;;;;;;10.23;70.45;101014.94;4862276;29;20128;-90
2021/12/29 03:33:48;;;;;;;5.65;3.40;;;;;;;9.93;70.27;100962.72;4862346;29;20036;-89
2021/12/29 03:36:15;;;;;;;4.30;3.35;;;;;;;10.32;70.33;101030.25;4876534;29;20049;-89
2021/12/29 03:38:42;;;;;;;4.25;3.30;;;;;;;9.99;70.03;100977.84;4877075;29;20102;-90
2021/12/29 03:41:12;;;;;;;5.00;3.47;;;;;;;10.17;70.54;101017.19;4876478;29;20043;-89
2021/12/29 03:43:39;;;;;;;4.60;3.47;;;;;;;10.19;70.23;101013.84;4861046;29;20033;-90
2021/12/29 03:46:05;;;;;;;4.68;3.20;;;;;;;10.25;70.22;101028.97;4876605;29;20059;-89
2021/12/29 03:48:34;;;;;;;5.15;3.10;;;;;;;9.93;70.21;100970.56;4861011;29;20487;-88
2021/12/29 03:51:01;;;;;;;4.57;3.28;;;;;;;10.01;70.36;100986.66;4872494;29;20033;-89
2021/12/29 03:53:28;;;;;;;5.38;3.08;;;;;;;10.12;70.27;101006.47;4863859;29;20164;-88
2021/12/29 03:55:57;;;;;;;4.25;3.28;;;;;;;9.97;70.35;100984.69;4862758;29;20093;-88
2021/12/29 03:58:24;;;;;;;4.07;3.20;;;;;;;9.90;70.43;100967.75;4876301;29;20120;-89
2021/12/29 04:00:54;;;;;;;5.32;3.50;;;;;;;10.24;70.63;101036.69;4860085;29;20021;-89
2021/12/29 04:03:20;;;;;;;5.38;3.40;;;;;;;10.13;70.51;101023.03;4876858;29;20040;-88
2021/12/29 04:05:47;;;;;;;4.25;3.13;;;;;;;9.96;70.47;100980.25;4876886;29;20033;-88
2021/12/29 04:08:13;;;;;;;4.32;3.10;;;;;;;10.18;70.65;101021.56;4876411;29;20052;-88
2021/12/29 04:10:40;;;;;;;4.25;3.20;;;;;;;10.05;70.50;101009.50;4875942;29;20060;-89
2021/12/29 04:13:07;;;;;;;4.95;3.53;;;;;;;10.26;70.33;101030.75;4875886;29;20514;-86
2021/12/29 04:15:33;;;;;;;5.07;3.42;;;;;;;10.15;70.44;101021.41;4876527;29;20037;-89
2021/12/29 04:18:02;;;;;;;5.47;3.30;;;;;;;10.19;70.58;101023.38;4875770;29;20052;-88
2021/12/29 04:23:19;;;;;;;4.55;2.90;;;;;;;10.23;70.67;101029.69;4871515;29;20085;-90
2021/12/29 04:25:49;;;;;;;4.18;3.00;;;;;;;9.93;70.45;100983.59;4876927;29;20041;-89
2021/12/29 04:28:20;;;;;;;4.07;2.97;;;;;;;10.28;70.47;101039.56;4874159;29;20036;-89
2021/12/29 04:30:47;;;;;;;3.53;3.00;;;;;;;10.24;70.53;101035.00;4891546;29;20033;-88
2021/12/29 04:33:16;;;;;;;3.83;3.20;;;;;;;9.83;70.70;100967.31;4877127;29;20035;-88
2021/12/29 04:35:41;;;;;;;3.90;3.05;;;;;;;9.83;70.44;100959.47;4877484;29;20065;-90
2021/12/29 04:38:08;;;;;;;4.15;2.88;;;;;;;9.87;70.22;100956.25;4880680;29;20033;-89
2021/12/29 04:40:34;;;;;;;4.78;2.95;;;;;;;10.26;70.67;101024.66;4879170;29;20029;-90
2021/12/29 04:43:00;;;;;;;3.80;2.90;;;;;;;10.01;70.51;100984.03;4880453;29;20093;-89
2021/12/29 04:45:29;;;;;;;4.15;3.10;;;;;;;10.01;70.64;100991.84;4879445;29;20036;-90
2021/12/29 04:47:58;;;;;;;4.07;3.05;;;;;;;10.01;70.38;100988.34;4864640;29;20056;-90
2021/12/29 04:50:35;;;;;;;4.50;3.13;;;;;;;10.07;70.69;100996.56;4865077;29;20043;-90
2021/12/29 04:53:05;;;;;;;3.45;2.80;;;;;;;10.15;70.65;101016.19;4880190;29;20037;-90
2021/12/29 04:55:34;;;;;;;3.42;2.72;;;;;;;10.26;70.22;101029.88;4879758;29;20047;-90
2021/12/29 04:58:25;;;;;;;5.55;3.00;;;;;;;10.22;70.90;101020.06;4877943;29;20063;-90
2021/12/29 05:01:02;;;;;;;3.50;2.88;;;;;;;10.24;70.64;101018.44;4867704;29;20033;-91
2021/12/29 05:03:38;;;;;;;4.35;2.95;;;;;;;10.22;70.79;101025.28;4867624;29;20052;-91
2021/12/29 05:08:31;;;;;;;4.53;3.33;;;;;;;9.98;70.71;100987.38;4883287;29;20590;-89
2021/12/29 05:11:15;;;;;;;3.67;2.88;;;;;;;10.18;70.86;101018.97;4882340;29;20060;-91
2021/12/29 05:13:49;;;;;;;3.38;2.67;;;;;;;10.09;70.48;101003.66;4899364;29;20064;-91
2021/12/29 05:16:14;;;;;;;4.05;2.97;;;;;;;9.88;70.51;100956.31;4867048;29;20032;-90
2021/12/29 05:18:40;;;;;;;4.15;3.05;;;;;;;9.97;70.77;100963.81;4867500;29;20039;-90
2021/12/29 05:21:38;;;;;;;3.97;3.10;;;;;;;10.18;70.46;101009.44;4899957;29;20043;-91
2021/12/29 05:24:04;;;;;;;5.10;3.20;;;;;;;9.99;70.51;100962.19;4883139;29;20035;-91
2021/12/29 05:26:29;;;;;;;4.97;3.35;;;;;;;9.78;70.42;100926.19;4867577;29;20044;-90
2021/12/29 05:29:05;;;;;;;5.85;3.20;;;;;;;10.16;70.71;101000.63;4867841;29;20028;-90
2021/12/29 05:32:06;;;;;;;4.55;3.17;;;;;;;10.18;70.78;101003.31;4879605;29;20140;-91
2021/12/29 05:34:36;;;;;;;4.57;3.00;;;;;;;10.03;70.55;100971.09;4893092;29;20124;-89
2021/12/29 05:37:03;;;;;;;5.47;2.92;;;;;;;9.77;70.51;100921.78;4898065;29;20511;-90
2021/12/29 05:39:32;;;;;;;3.83;3.00;;;;;;;9.98;70.52;100944.72;4866910;29;20032;-91
2021/12/29 05:42:01;;;;;;;3.80;2.50;;;;;;;10.01;70.41;100952.72;4882916;29;20043;-90
2021/12/29 05:44:28;;;;;;;3.17;2.50;;;;;;;10.07;70.26;100966.13;4898481;29;20560;-90
2021/12/29 05:46:55;;;;;;;3.70;2.75;;;;;;;9.77;70.31;100913.94;4899199;29;20092;-91
2021/12/29 05:49:30;;;;;;;3.92;2.80;;;;;;;10.16;70.53;100987.56;4881672;29;20031;-94
2021/12/29 05:51:56;;;;;;;4.05;2.90;;;;;;;9.96;70.78;100959.41;4882123;29;20488;-89
2021/12/29 05:54:21;;;;;;;4.00;2.90;;;;;;;9.73;70.66;100922.41;4866054;29;20115;-90
2021/12/29 05:56:47;;;;;;;6.15;3.97;;;;;;;10.05;70.69;100975.59;4866786;29;20037;-89
2021/12/29 05:59:35;;;;;;;6.72;4.28;;;;;;;10.15;70.60;100997.91;4896047;29;20095;-91
2021/12/29 06:02:05;;;;;;;5.55;3.90;;;;;;;9.94;70.38;100961.91;4882940;29;20096;-89
2021/12/29 06:04:39;;;;;;;6.13;4.00;;;;;;;9.85;70.68;100927.47;4882781;29;20036;-92
2021/12/29 06:07:04;;;;;;;4.63;3.60;;;;;;;10.05;70.59;100961.66;4897341;29;20024;-89
2021/12/29 06:09:30;;;;;;;4.20;3.15;;;;;;;10.13;70.63;100982.16;4897990;29;20025;-90
2021/12/29 06:11:56;;;;;;;4.10;3.30;;;;;;;10.18;70.49;100982.44;4898150;29;20414;-89
2021/12/29 06:14:27;;;;;;;4.68;3.30;;;;;;;10.14;70.57;100988.31;4882004;29;20104;-90
2021/12/29 06:16:54;;;;;;;4.68;3.00;;;;;;;9.93;70.39;100946.19;4881988;29;20060;-91
2021/12/29 06:22:42;;;;;;;3.92;3.10;;;;;;;10.13;70.69;100973.44;4899483;29;20039;-92
2021/12/29 06:25:18;;;;;;;4.35;2.95;;;;;;;9.96;70.78;100947.25;4866792;29;20048;-91
2021/12/29 06:27:54;;;;;;;3.33;2.83;;;;;;;9.98;70.69;100952.56;4882319;29;20029;-90
2021/12/29 06:30:21;;;;;;;4.28;2.85;;;;;;;9.98;70.75;100958.66;4876141;29;20470;-94
2021/12/29 06:32:57;;;;;;;4.13;2.90;;;;;;;9.73;70.81;100914.56;4881079;29;20032;-92
2021/12/29 06:35:26;;;;;;;4.00;3.00;;;;;;;9.90;70.89;100954.69;4874552;29;20029;-93
2021/12/29 06:37:57;;;;;;;3.33;2.80;;;;;;;10.11;71.01;100989.00;4881782;29;20044;-92
2021/12/29 06:40:23;;;;;;;3.90;2.70;;;;;;;10.08;71.03;100983.59;4881502;29;20048;-88
2021/12/29 06:42:48;;;;;;;4.40;2.90;;;;;;;10.10;70.73;100982.00;4881146;29;20120;-87
2021/12/29 06:45:15;;;;;;;3.90;2.85;;;;;;;9.75;70.71;100927.72;4881005;29;20091;-88
2021/12/29 06:47:45;;;;;;;4.78;3.28;;;;;;;10.09;70.73;100981.91;4881427;29;20044;-89
2021/12/29 06:50:11;;;;;;;4.18;2.70;;;;;;;9.70;70.94;100919.63;4880048;29;20035;-88
2021/12/29 06:52:36;;;;;;;3.97;2.90;;;;;;;9.71;70.65;100920.50;4867130;29;20037;-88
2021/12/29 06:55:06;;;;;;;3.65;2.90;;;;;;;9.95;71.11;100970.66;4864193;29;20479;-90
2021/12/29 06:57:34;;;;;;;3.55;3.00;;;;;;;9.85;71.30;100963.09;4896834;29;20085;-89
2021/12/29 06:59:59;;;;;;;3.58;2.80;;;;;;;9.67;71.04;100932.50;4874374;29;20033;-89
2021/12/29 07:02:25;;;;;;;3.90;2.92;;;;;;;9.84;71.15;100954.38;4870178;29;20024;-87
2021/12/29 07:04:51;;;;;;;3.53;2.50;;;;;;;10.02;70.92;100987.56;4864351;29;20033;-89
2021/12/29 07:07:17;;;;;;;3.72;2.80;;;;;;;9.88;71.01;100951.09;4863310;29;20040;-87
2021/12/29 07:09:43;;;;;;;4.03;2.67;;;;;;;9.56;71.22;100910.06;4895165;29;20032;-89
2021/12/29 07:12:09;;;;;;;4.28;2.83;;;;;;;9.86;71.14;100955.31;4878662;29;20029;-86
2021/12/29 07:14:38;;;;;;;3.65;2.80;;;;;;;9.83;71.19;100956.88;4896310;29;20029;-90
2021/12/29 07:17:06;;;;;;;6.82;3.45;;;;;;;10.01;71.13;100999.69;4880844;29;20131;-90
2021/12/29 07:19:33;;;;;;;4.47;3.40;;;;;;;10.01;71.28;100996.19;4880472;29;20087;-90
2021/12/29 07:22:03;;;;;;;5.53;3.40;;;;;;;9.92;71.41;100986.09;4880082;29;20033;-90
2021/12/29 07:24:39;;;;;;;4.20;2.95;;;;;;;9.77;71.68;100967.81;4897665;29;20104;-91
2021/12/29 07:27:08;;;;;;;3.70;3.00;;;;;;;9.76;71.46;100948.69;4881507;29;20032;-90
2021/12/29 07:29:37;;;;;;;4.32;3.17;;;;;;;10.02;71.28;100987.56;4874896;29;20933;-87
2021/12/29 07:32:03;;;;;;;4.05;2.90;;;;;;;9.79;71.55;100964.50;4896648;29;20492;-87
2021/12/29 07:34:29;;;;;;;4.13;3.13;;;;;;;9.84;72.20;100996.09;4880086;29;20040;-86
2021/12/29 07:36:55;;;;;;;4.72;3.20;;;;;;;9.81;71.48;100968.94;4879929;29;20048;-87
2021/12/29 07:39:21;;;;;;;4.70;3.25;;;;;;;9.55;71.14;100913.50;4896386;29;20025;-86
2021/12/29 07:41:47;;;;;;;4.07;3.03;;;;;;;9.96;71.94;100995.91;4879648;29;20028;-87
2021/12/29 07:44:14;;;;;;;5.00;3.40;;;;;;;9.81;71.34;100963.72;4879954;29;20036;-86
2021/12/29 07:46:41;;;;;;;3.55;2.97;;;;;;;9.90;71.86;100996.44;4895491;29;20039;-85
2021/12/29 07:49:07;;;;;;;3.70;2.60;;;;;;;9.48;72.22;100938.31;4895602;29;20100;-85
2021/12/29 07:51:34;;;;;;;5.18;3.33;;;;;;;9.68;71.77;100964.69;4879754;29;20033;-86
2021/12/29 07:53:59;;;;;;;6.22;3.42;;;;;;;9.74;71.80;100970.25;4896583;29;20037;-86
2021/12/29 07:56:26;;;;;;;5.18;3.20;;;;;;;9.33;71.65;100920.03;4896190;29;20052;-86
2021/12/29 07:58:51;;;;;;;6.03;3.67;;;;;;;9.70;71.45;100958.75;4879090;29;20040;-86
2021/12/29 08:01:18;;;;;;;3.95;2.97;;;;;;;9.48;71.25;100911.31;4864225;29;20047;-86
2021/12/29 08:03:44;;;;;;;5.22;3.40;;;;;;;9.57;71.67;100930.13;4879675;29;20028;-86
2021/12/29 08:06:10;;;;;;;4.65;3.00;;;;;;;9.51;72.04;100924.53;4879884;29;20028;-86
2021/12/29 08:08:36;;;;;;;5.38;3.70;;;;;;;9.30;72.08;100901.56;4895529;29;20024;-86
2021/12/29 08:11:02;;;;;;;4.55;3.20;;;;;;;9.22;72.07;100907.13;4895752;29;20115;-86
2021/12/29 08:13:27;;;;;;;4.68;2.80;;;;;;;9.37;72.61;100927.19;4879532;29;20025;-87
2021/12/29 08:15:53;;;;;;;3.67;2.85;;;;;;;9.78;72.56;100961.81;4864257;29;20068;-86
2021/12/29 08:18:18;;;;;;;5.05;3.15;;;;;;;9.63;72.07;100961.78;4892677;29;20102;-86
2021/12/29 08:20:44;;;;;;;4.93;3.05;;;;;;;9.75;72.16;100978.16;4879305;29;20112;-87
2021/12/29 08:23:11;;;;;;;4.63;2.90;;;;;;;9.71;72.66;100981.38;4879491;29;20029;-86
2021/12/29 08:25:38;;;;;;;3.92;3.10;;;;;;;9.55;72.05;100921.31;4879668;29;20138;-86
2021/12/29 08:28:04;;;;;;;4.97;3.33;;;;;;;9.65;71.83;100927.97;4879380;29;20447;-86
2021/12/29 08:30:30;;;;;;;5.40;3.40;;;;;;;9.48;72.12;100924.34;4863370;29;20090;-87
2021/12/29 08:32:56;;;;;;;6.00;4.00;;;;;;;9.83;72.12;100960.38;4896926;29;20514;-86
2021/12/29 08:35:22;;;;;;;4.75;3.70;;;;;;;9.63;72.10;100925.28;4899841;29;20060;-86
2021/12/29 08:37:48;;;;;;;4.82;3.45;;;;;;;9.85;71.53;100945.72;4899666;29;20111;-87
2021/12/29 08:40:15;;;;;;;4.47;3.00;;;;;;;9.51;71.99;100909.78;4883239;29;20119;-85
2021/12/29 08:42:42;;;;;;;4.13;3.10;;;;;;;9.49;71.48;100879.25;4899764;29;20427;-86
2021/12/29 08:45:27;;;;;;;7.00;3.33;;;;;;;9.92;72.05;100946.97;4883106;29;20052;-85
2021/12/29 08:47:55;;;;;;;4.15;3.20;;;;;;;9.81;71.83;100935.91;4898258;29;20399;-85
2021/12/29 08:50:22;;;;;;;4.55;3.70;;;;;;;9.87;71.65;100938.00;4883160;29;20112;-86
2021/12/29 08:52:48;;;;;;;6.30;4.30;;;;;;;9.85;71.73;100932.69;4881895;29;20063;-86
2021/12/29 08:55:14;;;;;;;7.63;4.63;;;;;;;9.67;72.22;100922.06;4877009;29;20068;-86
2021/12/29 08:57:41;;;;;;;9.27;5.05;;;;;;;9.53;72.98;100910.78;4897805;29;20044;-86
2021/12/29 09:00:10;;;;;;;5.75;3.90;;;;;;;9.71;72.31;100924.00;4898310;29;20029;-86
2021/12/29 09:02:36;;;;;;;5.63;3.90;;;;;;;9.60;71.79;100872.94;4882711;29;20028;-85
2021/12/29 09:05:02;;;;;;;5.05;4.03;;;;;;;9.14;72.77;100826.81;4900791;29;20033;-86
2021/12/29 09:07:28;;;;;;;7.07;4.25;;;;;;;9.67;72.84;100898.59;4898366;29;20049;-86
2021/12/29 09:09:54;;;;;;;5.43;3.95;;;;;;;9.70;72.78;100919.63;4880889;29;20563;-86
2021/12/29 09:12:19;;;;;;;5.45;3.85;;;;;;;9.69;72.38;100907.38;4897803;29;20047;-85
2021/12/29 09:14:45;;;;;;;5.75;3.75;;;;;;;9.78;72.40;100904.44;4899070;29;20024;-86
2021/12/29 09:17:11;;;;;;;5.45;3.78;;;;;;;9.24;73.16;100840.38;4882581;29;20060;-87
2021/12/29 09:19:40;;;;;;;6.05;4.07;;;;;;;9.51;73.38;100899.38;4890498;29;20031;-86
2021/12/29 09:22:07;;;;;;;5.07;4.03;;;;;;;9.33;72.99;100849.66;4876688;29;20029;-84
2021/12/29 09:24:32;;;;;;;5.68;4.28;;;;;;;9.64;72.33;100887.97;4880871;29;20036;-86
2021/12/29 09:26:58;;;;;;;5.18;3.85;;;;;;;9.67;72.55;100911.63;4897469;29;20040;-86
2021/12/29 09:29:24;;;;;;;5.05;4.10;;;;;;;9.41;72.73;100857.91;4881241;29;20132;-86
2021/12/29 09:31:50;;;;;;;5.18;3.60;;;;;;;9.62;72.75;100884.38;4882290;29;20040;-86
2021/12/29 09:34:16;;;;;;;5.10;3.53;;;;;;;9.62;72.75;100893.91;4881905;29;20036;-85
2021/12/29 09:36:41;;;;;;;4.78;3.53;;;;;;;9.63;73.13;100903.50;4877927;29;20041;-86
2021/12/29 09:39:07;;;;;;;4.43;3.38;;;;;;;9.49;73.13;100864.50;4863388;29;20521;-84
2021/12/29 09:41:33;;;;;;;5.07;3.92;;;;;;;9.51;73.37;100890.66;4883970;29;20028;-86
2021/12/29 09:43:59;;;;;;;4.55;3.70;;;;;;;9.60;73.12;100893.81;4898452;29;20042;-85
2021/12/29 09:46:25;;;;;;;4.95;3.60;;;;;;;9.53;73.07;100874.28;4880345;29;20112;-85
2021/12/29 09:48:51;;;;;;;5.80;3.63;;;;;;;9.65;72.66;100874.13;4871364;29;20053;-85
2021/12/29 09:51:18;;;;;;;4.63;3.55;;;;;;;9.24;72.89;100806.50;4883408;29;20037;-85
2021/12/29 09:53:44;;;;;;;6.05;3.90;;;;;;;9.72;72.92;100881.50;4880108;29;20023;-86
2021/12/29 09:56:11;;;;;;;5.40;3.70;;;;;;;9.69;72.76;100889.13;4871022;29;20053;-86
2021/12/29 09:58:39;;;;;;;6.93;3.83;;;;;;;9.31;72.11;100774.78;4882624;29;20076;-86
2021/12/29 10:01:09;;;;;;;5.05;3.55;;;;;;;9.75;72.29;100858.19;4882876;29;20064;-86
2021/12/29 10:03:35;;;;;;;4.25;3.20;;;;;;;9.78;72.17;100879.25;4863859;29;20029;-85
2021/12/29 10:06:03;;;;;;;4.90;3.92;;;;;;;9.35;72.12;100790.69;4886735;29;20092;-86
2021/12/29 10:08:35;;;;;;;5.05;3.60;;;;;;;9.81;72.47;100860.28;4898197;29;20487;-86
2021/12/29 10:11:09;;;;;;;5.05;3.60;;;;;;;9.74;72.69;100846.00;4892640;29;20121;-85
2021/12/29 10:13:38;;;;;;;4.00;3.38;;;;;;;9.92;72.57;100863.50;4876422;29;20455;-85
2021/12/29 10:16:06;;;;;;;6.55;3.95;;;;;;;9.58;72.59;100828.53;4864888;29;20063;-86
2021/12/29 10:18:34;;;;;;;7.63;3.72;;;;;;;9.68;72.27;100826.47;4873635;29;20021;-86
2021/12/29 10:21:05;;;;;;;5.32;3.58;;;;;;;9.72;72.43;100849.31;4867147;29;20051;-86
2021/12/29 10:23:36;;;;;;;5.35;3.42;;;;;;;9.57;72.23;100807.59;4865533;29;20415;-86
2021/12/29 10:26:32;;;;;;;5.28;3.40;;;;;;;9.71;72.46;100811.88;4895915;29;20619;-86
2021/12/29 10:29:02;;;;;;;4.95;3.15;;;;;;;9.84;72.30;100829.19;4879237;29;20696;-86
2021/12/29 10:31:42;;;;;;;5.15;3.33;;;;;;;9.79;72.33;100828.88;4869264;29;20392;-87
2021/12/29 10:34:14;;;;;;;5.53;3.63;;;;;;;9.74;72.35;100816.41;4880240;29;20423;-86
2021/12/29 10:36:52;;;;;;;5.32;3.60;;;;;;;9.94;71.75;100821.03;4897731;29;20056;-86
2021/12/29 10:39:25;;;;;;;5.25;3.55;;;;;;;9.79;72.36;100823.66;4879543;29;20029;-86
2021/12/29 10:42:01;;;;;;;5.18;3.60;;;;;;;9.73;72.12;100793.72;4888331;29;20067;-85
2021/12/29 10:44:31;;;;;;;5.30;3.80;;;;;;;9.70;72.20;100777.94;4868430;29;20025;-86
2021/12/29 10:46:58;;;;;;;4.65;3.35;;;;;;;9.79;72.09;100801.91;4872758;29;20043;-85
2021/12/29 10:49:27;;;;;;;7.78;3.50;;;;;;;9.76;72.48;100800.03;4876730;29;20120;-84
2021/12/29 10:51:58;;;;;;;4.30;3.17;;;;;;;9.77;72.32;100798.31;4881052;29;20032;-85
2021/12/29 10:54:27;;;;;;;5.43;3.20;;;;;;;9.82;71.93;100789.06;4894753;29;20029;-86
2021/12/29 10:57:08;;;;;;;4.68;3.22;;;;;;;9.59;72.23;100769.50;4880274;29;20060;-86
2021/12/29 10:59:37;;;;;;;4.80;3.38;;;;;;;9.73;72.08;100788.53;4870758;29;20116;-86
2021/12/29 11:02:04;;;;;;;5.18;3.42;;;;;;;9.76;71.69;100775.69;4863308;29;20412;-86
2021/12/29 11:04:29;;;;;;;6.68;3.40;;;;;;;9.64;71.91;100769.75;4864790;29;20124;-85
2021/12/29 11:06:57;;;;;;;4.60;3.28;;;;;;;9.87;71.83;100781.50;4867810;29;20180;-85
2021/12/29 11:09:35;;;;;;;5.93;3.60;;;;;;;9.60;71.71;100733.88;4886283;29;20040;-85
2021/12/29 11:12:09;;;;;;;4.03;3.40;;;;;;;9.60;71.90;100731.28;4870527;29;20415;-85
2021/12/29 11:14:42;;;;;;;4.40;3.40;;;;;;;9.86;71.74;100772.75;4874927;29;20040;-85
2021/12/29 11:17:23;;;;;;;5.30;3.13;;;;;;;9.62;71.65;100719.22;4862840;29;20033;-85
2021/12/29 11:19:59;;;;;;;5.18;3.28;;;;;;;9.70;71.47;100723.16;4854024;29;20515;-85
2021/12/29 11:22:27;;;;;;;4.45;3.17;;;;;;;9.32;71.95;100675.84;4873554;29;20036;-85
2021/12/29 11:25:02;;;;;;;4.45;3.08;;;;;;;9.56;71.70;100718.03;4895985;29;20413;-87
2021/12/29 11:27:30;;;;;;;4.00;3.05;;;;;;;9.36;71.76;100667.41;4880231;29;20024;-85
2021/12/29 11:30:03;;;;;;;3.70;3.28;;;;;;;9.90;71.73;100752.97;4896976;29;20028;-85
2021/12/29 11:32:43;;;;;;;4.25;3.40;;;;;;;9.45;72.29;100718.25;4880312;29;20044;-85
2021/12/29 11:35:22;;;;;;;5.45;3.60;;;;;;;9.62;72.69;100745.28;4878611;29;20067;-85
2021/12/29 11:37:57;;;;;;;4.38;3.20;;;;;;;9.57;72.60;100755.47;4877292;29;20045;-84
2021/12/29 11:40:31;;;;;;;4.30;3.17;;;;;;;9.50;72.15;100703.78;4877577;29;20183;-86
2021/12/29 11:42:57;;;;;;;4.25;3.10;;;;;;;8.88;72.65;100624.69;4871937;29;20084;-85
2021/12/29 11:45:24;;;;;;;4.88;3.22;;;;;;;8.97;72.25;100619.09;4896088;29;20028;-85
2021/12/29 11:47:51;;;;;;;4.28;3.05;;;;;;;9.90;71.43;100750.34;4879238;29;20043;-85
2021/12/29 11:50:32;;;;;;;5.18;3.55;;;;;;;9.82;71.92;100752.56;4880083;29;20060;-90
2021/12/29 11:53:10;;;;;;;3.72;2.88;;;;;;;9.87;71.74;100750.19;4880338;29;20028;-90
2021/12/29 11:55:47;;;;;;;4.57;3.00;;;;;;;9.81;71.58;100744.63;4895207;29;20025;-88
2021/12/29 11:58:16;;;;;;;4.18;3.13;;;;;;;9.86;71.60;100743.16;4879500;29;20061;-87
2021/12/29 12:00:46;;;;;;;4.53;3.45;;;;;;;9.45;72.15;100698.31;4894938;29;20435;-89
2021/12/29 12:03:14;;;;;;;4.35;3.17;;;;;;;9.62;72.64;100733.16;4863879;29;20041;-88
2021/12/29 12:05:47;;;;;;;4.63;3.40;;;;;;;9.40;72.34;100678.91;4864421;29;20040;-90
2021/12/29 12:08:21;;;;;;;4.45;3.15;;;;;;;9.40;71.96;100684.13;4895155;29;20044;-89
2021/12/29 12:10:48;;;;;;;6.50;3.72;;;;;;;9.91;71.57;100747.84;4880137;29;20526;-88
2021/12/29 12:13:26;;;;;;;3.33;2.88;;;;;;;9.66;72.01;100722.09;4880353;29;20039;-87
2021/12/29 12:16:13;;;;;;;4.03;2.88;;;;;;;9.85;71.90;100736.19;4880160;29;20024;-88
2021/12/29 12:18:59;;;;;;;4.57;3.05;;;;;;;9.85;71.64;100704.88;4879524;29;20503;-88